createdAt,value
2016-12-20T07:35:22.762Z,27.91
2016-12-20T07:35:37.875Z,27.34
2016-12-20T07:36:07.904Z,27.25
2016-12-20T07:36:37.941Z,26.11
2016-12-20T07:37:07.973Z,25.45
2016-12-20T07:37:38.010Z,25.35
2016-12-20T07:38:08.041Z,25.26
2016-12-20T07:38:38.075Z,24.59
2016-12-20T07:39:08.110Z,24.4
2016-12-20T07:39:38.169Z,23.83
2016-12-20T07:40:08.171Z,24.11
2016-12-20T07:40:38.207Z,24.11
2016-12-20T07:49:06.002Z,16.83
2016-12-20T07:49:37.207Z,13.76
2016-12-20T10:26:30.995Z,7.08
2016-12-20T10:27:00.826Z,7.17
2016-12-20T10:27:30.863Z,7.55
2016-12-20T10:28:00.896Z,8.03
2016-12-20T10:28:30.926Z,8.99
2016-12-20T10:29:00.960Z,9.28
2016-12-20T10:29:30.995Z,9.95
2016-12-20T10:30:01.041Z,10.14
2016-12-20T10:30:31.063Z,9.95
2016-12-20T10:31:01.111Z,10.33
2016-12-20T10:31:31.136Z,10.72
2016-12-20T10:32:01.174Z,10.62
2016-12-20T10:32:31.207Z,10.62
2016-12-20T10:33:01.244Z,10.72
2016-12-20T10:33:31.274Z,10.81
2016-12-20T10:34:01.427Z,11.78
2016-12-20T10:34:31.346Z,11.2
2016-12-20T10:35:01.380Z,10.91
2016-12-20T10:35:31.414Z,10.81
2016-12-20T10:36:01.450Z,10.81
2016-12-20T10:36:31.490Z,10.42
2016-12-20T10:37:01.521Z,10.71
2016-12-20T10:37:31.565Z,10.61
2016-12-20T10:38:01.591Z,10.32
2016-12-20T10:38:31.627Z,10.71
2016-12-20T10:39:01.663Z,10.61
2016-12-20T10:39:31.698Z,10.61
2016-12-20T10:40:01.740Z,10.61
2016-12-20T10:40:31.773Z,10.61
2016-12-20T10:41:01.806Z,10.52
2016-12-20T10:41:31.842Z,10.32
2016-12-20T10:42:31.907Z,10.71
2016-12-20T10:43:01.955Z,10.71
2016-12-20T10:43:31.986Z,10.23
2016-12-20T10:44:02.020Z,10.32
2016-12-20T10:44:32.057Z,10.04
2016-12-20T10:45:02.097Z,10.42
2016-12-20T10:45:32.127Z,10.32
2016-12-20T10:46:02.362Z,10.13
2016-12-20T10:46:32.202Z,9.94
2016-12-20T10:47:02.585Z,10.03
2016-12-20T10:47:32.269Z,10.42
2016-12-20T10:48:02.310Z,10.23
2016-12-20T10:48:32.344Z,10.23
2016-12-20T10:49:02.679Z,10.14
2016-12-20T10:49:32.413Z,10.32
2016-12-20T10:50:02.754Z,9.84
2016-12-20T10:50:32.484Z,10.13
2016-12-20T10:51:02.626Z,10.03
2016-12-20T10:51:32.555Z,9.75
2016-12-20T10:52:02.895Z,9.84
2016-12-20T10:52:32.753Z,9.94
2016-12-20T10:53:02.663Z,9.84
2016-12-20T10:53:32.703Z,10.03
2016-12-20T10:54:03.087Z,9.94
2016-12-20T10:54:32.774Z,10.04
2016-12-20T10:55:02.812Z,10.14
2016-12-20T10:55:32.845Z,10.14
2016-12-20T10:56:03.034Z,9.94
2016-12-20T10:56:32.915Z,10.14
2016-12-20T10:57:02.960Z,10.04
2016-12-20T10:57:32.992Z,10.04
2016-12-20T10:58:03.024Z,9.56
2016-12-20T10:58:33.062Z,9.84
2016-12-20T10:59:03.095Z,9.75
2016-12-20T10:59:33.133Z,9.56
2016-12-20T11:00:03.165Z,9.65
2016-12-20T11:00:33.210Z,9.56
2016-12-20T11:01:03.243Z,9.56
2016-12-20T11:01:33.274Z,9.94
2016-12-20T11:02:03.314Z,9.84
2016-12-20T11:02:33.364Z,9.56
2016-12-20T11:03:03.388Z,10.14
2016-12-20T11:03:33.419Z,9.94
2016-12-20T11:04:03.456Z,10.04
2016-12-20T11:04:33.492Z,10.14
2016-12-20T11:05:03.534Z,9.56
2016-12-20T11:05:33.564Z,9.56
2016-12-20T11:06:03.603Z,9.94
2016-12-20T11:06:33.634Z,10.04
2016-12-20T11:07:03.676Z,9.75
2016-12-20T11:07:33.712Z,9.56
2016-12-20T11:08:03.747Z,9.56
2016-12-20T11:08:33.783Z,9.94
2016-12-20T11:09:03.821Z,9.46
2016-12-20T11:09:33.853Z,9.46
2016-12-20T11:10:03.891Z,9.46
2016-12-20T11:10:33.931Z,9.36
2016-12-20T11:11:03.961Z,9.66
2016-12-20T11:11:33.996Z,9.75
2016-12-20T11:12:04.032Z,9.27
2016-12-20T11:12:34.069Z,9.27
2016-12-20T11:13:04.108Z,9.17
2016-12-20T11:13:34.142Z,9.36
2016-12-20T11:14:04.177Z,9.27
2016-12-20T11:14:34.213Z,9.27
2016-12-20T11:15:04.256Z,9.27
2016-12-20T11:15:34.286Z,9.36
2016-12-20T11:16:04.322Z,9.27
2016-12-20T12:43:04.567Z,24.75
2016-12-20T12:43:19.682Z,24.27
2016-12-20T12:43:49.709Z,24.08
2016-12-20T12:44:19.739Z,24.08
2016-12-20T12:44:49.771Z,24.55
2016-12-20T12:45:19.808Z,24.45
2016-12-20T12:45:49.837Z,24.65
2016-12-20T12:46:19.871Z,25.03
2016-12-20T12:46:49.905Z,25.21
2016-12-20T12:47:19.943Z,25.4
2016-12-20T12:47:49.972Z,25.49
2016-12-20T12:48:20.009Z,25.79
2016-12-20T12:48:50.043Z,25.49
2016-12-20T12:49:20.076Z,25.49
2016-12-20T12:49:50.111Z,25.4
2016-12-20T12:50:20.141Z,25.79
2016-12-20T12:50:50.180Z,25.88
2016-12-20T12:51:20.221Z,26.07
2016-12-20T12:51:50.255Z,26.27
2016-12-20T12:52:20.286Z,26.07
2016-12-20T12:52:50.327Z,25.98
2016-12-20T12:53:20.362Z,25.88
2016-12-20T12:53:50.396Z,26.17
2016-12-20T12:54:20.426Z,26.36
2016-12-20T12:54:50.463Z,26.17
2016-12-20T12:55:20.495Z,26.36
2016-12-20T12:55:50.532Z,26.46
2016-12-20T12:56:20.567Z,26.17
2016-12-20T12:56:50.605Z,26.56
2016-12-20T12:57:20.639Z,26.56
2016-12-20T12:57:50.681Z,26.46
2016-12-20T12:58:20.710Z,26.17
2016-12-20T12:58:50.745Z,26.17
2016-12-20T12:59:20.780Z,26.27
2016-12-20T12:59:50.819Z,26.17
2016-12-20T13:00:20.875Z,26.27
2016-12-20T13:00:50.888Z,26.17
2016-12-20T13:01:20.924Z,26.27
2016-12-20T13:01:50.958Z,26.27
2016-12-20T13:02:20.994Z,26.07
2016-12-20T13:02:51.034Z,26.17
2016-12-20T13:03:21.065Z,26.28
2016-12-20T13:03:51.115Z,26.36
2016-12-20T13:04:21.136Z,26.27
2016-12-20T13:04:51.172Z,26.56
2016-12-20T13:05:21.209Z,26.36
2016-12-20T13:05:51.244Z,26.27
2016-12-20T13:06:21.282Z,26.47
2016-12-20T13:06:51.322Z,26.28
2016-12-20T13:07:21.353Z,26.36
2016-12-20T13:07:51.401Z,26.28
2016-12-20T13:08:21.423Z,26.46
2016-12-20T13:08:51.455Z,26.09
2016-12-20T13:09:21.496Z,26.47
2016-12-20T13:09:51.531Z,26.46
2016-12-20T13:10:21.562Z,26.36
2016-12-20T13:10:51.601Z,26.47
2016-12-20T13:11:21.641Z,26.37
2016-12-20T13:11:51.673Z,26.46
2016-12-20T13:12:21.707Z,26.67
2016-12-20T13:12:51.746Z,26.27
2016-12-20T13:13:21.909Z,26.07
2016-12-20T13:13:51.818Z,26.07
2016-12-20T13:14:21.850Z,26.07
2016-12-20T13:14:51.886Z,26.09
2016-12-20T13:15:21.925Z,26.37
2016-12-20T13:15:51.957Z,25.99
2016-12-20T13:16:22.009Z,26.37
2016-12-20T13:16:52.032Z,26.07
2016-12-20T13:17:22.070Z,26.09
2016-12-20T13:17:52.103Z,26.17
2016-12-20T13:18:22.141Z,25.99
2016-12-20T13:18:52.176Z,26.18
2016-12-20T13:19:22.211Z,26.07
2016-12-20T13:19:52.252Z,25.98
2016-12-20T13:20:22.282Z,26.18
2016-12-20T13:20:52.310Z,26.18
2016-12-20T13:21:22.355Z,26.18
2016-12-20T13:21:52.383Z,26.09
2016-12-20T13:22:22.422Z,25.99
2016-12-20T13:22:52.468Z,26.27
2016-12-20T13:23:22.493Z,26.09
2016-12-20T13:23:52.529Z,26.07
2016-12-20T13:24:22.568Z,26.17
2016-12-20T13:24:52.597Z,26.09
2016-12-20T13:25:22.634Z,26.17
2016-12-20T13:25:52.671Z,26.09
2016-12-20T13:26:22.711Z,26.09
2016-12-20T13:26:52.740Z,26.18
2016-12-20T13:27:22.774Z,25.9
2016-12-20T13:27:52.812Z,26.07
2016-12-20T13:28:22.851Z,25.99
2016-12-20T13:28:52.885Z,26.09
2016-12-20T13:29:22.922Z,25.8
2016-12-20T13:29:52.961Z,26.09
2016-12-20T13:30:22.994Z,26.09
2016-12-20T13:30:53.028Z,25.99
2016-12-20T13:31:23.063Z,25.9
2016-12-20T13:31:53.100Z,26.28
2016-12-20T13:32:23.137Z,25.99
2016-12-20T13:32:53.170Z,25.99
2016-12-20T13:33:23.210Z,26.09
2016-12-20T13:33:53.243Z,26.18
2016-12-20T13:34:23.282Z,26.18
2016-12-20T13:34:53.316Z,26.09
2016-12-20T13:35:23.350Z,26.09
2016-12-20T13:35:53.388Z,26.09
2016-12-20T13:36:23.425Z,26.09
2016-12-20T13:36:53.463Z,25.9
2016-12-20T13:37:23.498Z,26.18
2016-12-20T13:37:53.535Z,25.9
2016-12-20T13:38:23.564Z,26.18
2016-12-20T13:38:53.606Z,26.09
2016-12-20T13:39:23.636Z,25.99
2016-12-20T13:39:53.672Z,25.99
2016-12-20T13:40:23.709Z,26.18
2016-12-20T13:40:53.744Z,25.99
2016-12-20T13:41:23.780Z,26.09
2016-12-20T13:41:53.820Z,26.28
2016-12-20T13:42:23.857Z,26.18
2016-12-20T13:42:53.893Z,26.09
2016-12-20T13:43:23.956Z,26.18
2016-12-20T13:43:53.962Z,25.99
2016-12-20T13:44:24.010Z,25.8
2016-12-20T13:44:54.028Z,25.9
2016-12-20T13:45:24.065Z,26.09
2016-12-20T13:45:54.107Z,25.99
2016-12-20T13:46:24.139Z,25.7
2016-12-20T13:46:54.173Z,25.8
2016-12-20T13:47:24.211Z,25.8
2016-12-20T13:47:54.244Z,25.8
2016-12-20T13:48:24.280Z,25.7
2016-12-20T13:48:54.319Z,25.51
2016-12-20T13:49:24.353Z,25.51
2016-12-20T13:49:54.394Z,25.6
2016-12-20T13:50:24.431Z,25.8
2016-12-20T13:50:54.462Z,25.8
2016-12-20T13:51:24.497Z,25.7
2016-12-20T13:51:54.533Z,25.8
2016-12-20T13:52:24.565Z,25.9
2016-12-20T13:52:54.609Z,25.8
2016-12-20T13:53:24.649Z,25.8
2016-12-20T13:53:54.678Z,25.6
2016-12-20T13:54:24.718Z,25.7
2016-12-20T13:54:54.749Z,25.6
2016-12-20T13:55:24.779Z,25.7
2016-12-20T13:55:54.815Z,25.7
2016-12-20T13:56:24.857Z,25.7
2016-12-20T13:56:54.889Z,25.7
2016-12-20T13:57:24.925Z,25.6
2016-12-20T13:57:54.965Z,25.8
2016-12-20T13:58:25.000Z,25.6
2016-12-20T13:58:55.031Z,25.51
2016-12-20T13:59:25.068Z,25.51
2016-12-20T13:59:55.103Z,25.6
2016-12-20T14:00:25.142Z,25.42
2016-12-20T14:00:55.176Z,26.28
2016-12-20T14:01:25.211Z,25.99
2016-12-20T14:01:55.247Z,26.28
2016-12-20T14:02:25.286Z,26.09
2016-12-20T14:02:55.320Z,26.18
2016-12-20T14:03:25.358Z,26.09
2016-12-20T14:03:55.389Z,26.09
2016-12-20T14:04:25.424Z,26.09
2016-12-20T14:04:55.463Z,26.09
2016-12-20T14:05:25.495Z,25.99
2016-12-20T14:05:55.534Z,26.28
2016-12-20T14:06:25.568Z,25.99
2016-12-20T14:06:55.607Z,26.1
2016-12-20T14:07:25.638Z,26.28
2016-12-20T14:07:55.672Z,26.68
2016-12-20T14:08:25.714Z,26.67
2016-12-20T14:08:55.749Z,26.37
2016-12-20T14:09:25.784Z,26.58
2016-12-20T14:09:55.822Z,26.37
2016-12-20T14:10:25.858Z,26.37
2016-12-20T14:10:55.892Z,26.76
2016-12-20T14:11:25.924Z,26.18
2016-12-20T14:11:55.961Z,26.67
2016-12-20T14:12:25.997Z,26.67
2016-12-20T14:12:56.036Z,26.68
2016-12-20T14:13:26.076Z,26.68
2016-12-20T14:13:56.108Z,26.87
2016-12-20T14:14:26.148Z,27.06
2016-12-20T14:14:56.178Z,27.16
2016-12-20T14:15:26.230Z,26.97
2016-12-20T14:15:56.248Z,27.06
2016-12-20T14:16:26.284Z,27.26
2016-12-20T14:16:56.326Z,27.26
2016-12-20T14:17:26.356Z,26.97
2016-12-20T14:17:56.391Z,27.06
2016-12-20T14:18:26.432Z,27.16
2016-12-20T14:18:56.462Z,27.16
2016-12-20T14:19:26.502Z,27.16
2016-12-20T14:19:56.535Z,27.06
2016-12-20T14:20:26.575Z,27.06
2016-12-20T14:20:56.607Z,26.97
2016-12-20T14:21:26.644Z,27.16
2016-12-20T14:21:56.693Z,26.97
2016-12-20T14:22:26.715Z,27.06
2016-12-20T14:22:56.754Z,27.55
2016-12-20T14:23:26.787Z,27.55
2016-12-20T14:23:56.818Z,27.55
2016-12-20T14:24:26.859Z,27.26
2016-12-20T14:24:56.894Z,27.45
2016-12-20T14:25:26.930Z,27.74
2016-12-20T14:25:56.967Z,27.55
2016-12-20T14:26:27.002Z,27.74
2016-12-20T14:26:57.041Z,27.64
2016-12-20T14:27:27.071Z,27.45
2016-12-20T14:27:57.105Z,27.93
2016-12-20T14:28:27.142Z,27.45
2016-12-20T14:28:57.184Z,27.83
2016-12-20T14:29:27.215Z,27.74
2016-12-20T14:29:57.304Z,28.31
2016-12-20T14:30:27.287Z,27.64
2016-12-20T14:30:57.326Z,28.61
2016-12-20T14:31:27.357Z,28.61
2016-12-20T14:31:57.398Z,28.22
2016-12-20T14:32:27.429Z,28.13
2016-12-20T14:32:57.467Z,27.83
2016-12-20T14:33:27.503Z,27.16
2016-12-20T14:33:57.538Z,27.06
2016-12-20T14:34:27.578Z,26.39
2016-12-20T14:34:57.611Z,26.29
2016-12-20T14:35:27.646Z,26.68
2016-12-20T14:35:57.683Z,26.68
2016-12-20T14:36:27.718Z,26
2016-12-20T14:36:57.753Z,26.68
2016-12-20T14:37:27.788Z,26.97
2016-12-20T14:37:57.826Z,27.06
2016-12-20T14:38:27.859Z,27.35
2016-12-20T14:38:57.896Z,26.39
2016-12-20T14:39:27.934Z,26.58
2016-12-20T14:39:57.972Z,26.68
2016-12-20T14:40:28.009Z,26.67
2016-12-20T14:40:58.036Z,26.57
2016-12-20T14:41:28.077Z,26.76
2016-12-20T14:41:58.111Z,26.67
2016-12-20T14:42:28.148Z,26.57
2016-12-20T14:42:58.188Z,26.86
2016-12-20T14:43:28.224Z,26.57
2016-12-20T14:43:58.257Z,26.47
2016-12-20T14:44:28.290Z,26.47
2016-12-20T14:44:58.327Z,26.67
2016-12-20T14:45:28.360Z,26.67
2016-12-20T14:45:58.406Z,26.37
2016-12-20T14:46:28.435Z,26.78
2016-12-20T14:46:58.473Z,26.67
2016-12-20T14:47:28.510Z,26.67
2016-12-20T14:47:58.541Z,26.76
2016-12-20T14:48:28.578Z,26.29
2016-12-20T14:48:58.616Z,26.67
2016-12-20T14:49:28.656Z,26.76
2016-12-20T14:49:58.691Z,26.47
2016-12-20T14:50:28.722Z,26.18
2016-12-20T14:50:58.758Z,26.37
2016-12-20T14:51:28.793Z,26.39
2016-12-20T14:51:58.832Z,26.29
2016-12-20T14:52:28.867Z,26.47
2016-12-20T14:52:58.904Z,26.68
2016-12-20T14:53:28.938Z,26.37
2016-12-20T14:53:58.973Z,26.57
2016-12-20T14:54:29.017Z,26.28
2016-12-20T14:54:59.047Z,26.09
2016-12-20T14:55:29.083Z,26.37
2016-12-20T14:55:59.121Z,26.28
2016-12-20T14:56:29.152Z,26.37
2016-12-20T14:56:59.190Z,26.09
2016-12-20T14:57:29.226Z,26.28
2016-12-20T14:57:59.262Z,26.18
2016-12-20T14:58:29.299Z,26.18
2016-12-20T14:58:59.331Z,26.09
2016-12-20T14:59:29.365Z,25.99
2016-12-20T14:59:59.406Z,26.09
2016-12-20T15:00:29.441Z,25.9
2016-12-20T15:00:59.479Z,26.37
2016-12-20T15:01:29.521Z,26.09
2016-12-20T15:01:59.547Z,26.09
2016-12-20T15:02:29.578Z,25.7
2016-12-20T15:02:59.624Z,25.99
2016-12-20T15:03:29.658Z,26.09
2016-12-20T15:03:59.693Z,26.09
2016-12-20T15:04:29.729Z,25.9
2016-12-20T15:04:59.762Z,25.6
2016-12-20T15:05:29.801Z,25.6
2016-12-20T15:05:59.857Z,25.7
2016-12-20T15:06:29.870Z,25.51
2016-12-20T15:06:59.905Z,25.52
2016-12-20T15:07:29.943Z,25.7
2016-12-20T15:07:59.975Z,25.7
2016-12-20T15:08:30.015Z,25.7
2016-12-20T15:09:00.065Z,25.51
2016-12-20T15:09:30.088Z,25.8
2016-12-20T15:10:00.119Z,25.99
2016-12-20T15:10:30.160Z,25.33
2016-12-20T15:11:00.197Z,25.71
2016-12-20T15:11:30.228Z,25.7
2016-12-20T15:12:00.262Z,25.43
2016-12-20T15:12:30.302Z,25.52
2016-12-20T15:13:00.336Z,25.62
2016-12-20T15:13:30.371Z,25.52
2016-12-20T15:14:00.411Z,25.43
2016-12-20T15:14:30.450Z,25.62
2016-12-20T15:15:00.481Z,25.52
2016-12-20T15:15:30.516Z,25.62
2016-12-20T15:16:00.602Z,25.62
2016-12-20T15:16:30.590Z,25.43
2016-12-20T15:17:00.627Z,25.52
2016-12-20T15:17:30.664Z,25.43
2016-12-20T15:18:00.697Z,25.52
2016-12-20T15:18:30.739Z,25.43
2016-12-20T15:19:00.770Z,25.52
2016-12-20T15:19:30.804Z,25.62
2016-12-20T15:20:00.839Z,25.43
2016-12-20T15:20:30.879Z,25.62
2016-12-20T15:21:00.911Z,25.43
2016-12-20T15:21:30.948Z,25.52
2016-12-20T15:22:00.985Z,25.52
2016-12-20T15:22:31.020Z,25.43
2016-12-20T15:23:01.052Z,25.52
2016-12-20T15:23:31.089Z,25.62
2016-12-20T15:24:01.128Z,25.43
2016-12-20T15:24:31.161Z,25.52
2016-12-20T15:25:01.199Z,25.43
2016-12-20T15:25:31.239Z,25.52
2016-12-20T15:26:01.296Z,25.33
2016-12-20T15:26:31.303Z,25.43
2016-12-20T15:27:01.340Z,25.52
2016-12-20T15:27:31.374Z,25.52
2016-12-20T15:28:01.416Z,25.62
2016-12-20T15:28:31.447Z,25.71
2016-12-20T15:29:01.485Z,25.62
2016-12-20T15:29:31.521Z,25.71
2016-12-20T15:30:01.557Z,25.71
2016-12-20T15:30:31.591Z,25.43
2016-12-20T15:31:01.877Z,25.71
2016-12-20T15:31:31.660Z,25.52
2016-12-20T15:32:01.701Z,25.33
2016-12-20T15:32:31.730Z,25.52
2016-12-20T15:33:01.777Z,25.52
2016-12-20T15:33:31.809Z,25.52
2016-12-20T15:34:02.043Z,25.52
2016-12-20T15:34:31.880Z,25.71
2016-12-20T15:35:01.915Z,25.62
2016-12-20T15:35:31.950Z,25.71
2016-12-20T15:36:01.984Z,25.43
2016-12-20T15:36:32.024Z,25.43
2016-12-20T15:37:02.060Z,25.62
2016-12-20T15:37:32.088Z,25.71
2016-12-20T15:38:02.129Z,25.62
2016-12-20T15:38:32.165Z,25.71
2016-12-20T15:39:02.350Z,25.52
2016-12-20T15:39:32.235Z,25.52
2016-12-20T15:40:02.277Z,25.62
2016-12-20T15:40:32.305Z,25.52
2016-12-20T15:41:02.451Z,25.43
2016-12-20T15:41:32.380Z,25.43
2016-12-20T15:42:02.616Z,25.62
2016-12-20T15:42:32.450Z,25.52
2016-12-20T15:43:02.840Z,25.52
2016-12-20T15:43:32.521Z,25.43
2016-12-20T15:44:02.561Z,25.52
2016-12-20T15:44:32.593Z,25.43
2016-12-20T15:45:02.632Z,25.52
2016-12-20T15:45:32.664Z,25.52
2016-12-20T15:46:02.702Z,25.33
2016-12-20T15:46:32.736Z,25.52
2016-12-20T15:47:02.771Z,25.52
2016-12-20T15:47:32.810Z,25.52
2016-12-20T15:48:03.096Z,25.71
2016-12-20T15:48:32.878Z,25.43
2016-12-20T15:49:03.017Z,25.62
2016-12-20T15:49:32.949Z,25.62
2016-12-20T15:50:02.987Z,25.62
2016-12-20T15:50:33.021Z,25.62
2016-12-20T15:51:03.058Z,25.52
2016-12-20T15:51:33.097Z,25.52
2016-12-20T15:52:03.139Z,25.52
2016-12-20T15:52:33.163Z,25.52
2016-12-20T15:53:03.205Z,25.62
2016-12-20T15:53:33.240Z,25.52
2016-12-20T15:54:03.270Z,25.43
2016-12-20T15:54:33.308Z,25.62
2016-12-20T15:55:03.366Z,25.43
2016-12-20T15:55:33.378Z,25.43
2016-12-20T15:56:03.420Z,25.62
2016-12-20T15:56:33.450Z,25.52
2016-12-20T15:57:03.496Z,25.43
2016-12-20T15:57:33.524Z,25.43
2016-12-20T15:58:03.560Z,25.43
2016-12-20T15:58:33.590Z,25.62
2016-12-20T15:59:03.633Z,25.33
2016-12-20T15:59:33.661Z,25.62
2016-12-20T16:00:03.708Z,25.62
2016-12-20T16:00:33.739Z,25.52
2016-12-20T16:01:03.776Z,25.52
2016-12-20T16:01:33.812Z,25.43
2016-12-20T16:02:03.951Z,25.52
2016-12-20T16:02:34.002Z,25.43
2016-12-20T16:03:03.917Z,25.62
2016-12-20T16:03:33.958Z,25.33
2016-12-20T16:04:03.988Z,25.62
2016-12-20T16:04:34.023Z,25.62
2016-12-20T16:05:04.058Z,25.71
2016-12-20T16:05:34.093Z,25.71
2016-12-20T16:06:04.131Z,25.52
2016-12-20T16:06:34.167Z,25.62
2016-12-20T16:07:04.204Z,25.71
2016-12-20T16:07:34.238Z,25.43
2016-12-20T16:08:04.279Z,25.52
2016-12-20T16:08:34.323Z,25.33
2016-12-20T16:09:04.400Z,25.52
2016-12-20T16:09:34.387Z,25.71
2016-12-20T16:10:04.420Z,25.52
2016-12-20T16:10:34.453Z,25.71
2016-12-20T16:11:04.487Z,25.33
2016-12-20T16:11:34.524Z,25.52
2016-12-20T16:12:04.561Z,25.62
2016-12-20T16:12:34.607Z,25.43
2016-12-20T16:13:04.635Z,25.52
2016-12-20T16:13:34.670Z,25.62
2016-12-20T16:14:04.704Z,25.52
2016-12-20T16:14:34.743Z,25.43
2016-12-20T16:15:04.785Z,25.52
2016-12-20T16:15:34.811Z,25.71
2016-12-20T16:16:04.849Z,25.7
2016-12-20T16:16:34.876Z,26
2016-12-20T16:17:04.920Z,25.81
2016-12-20T16:17:34.959Z,25.8
2016-12-20T16:18:04.990Z,25.91
2016-12-20T16:18:35.034Z,25.71
2016-12-20T16:19:05.062Z,25.6
2016-12-20T16:19:35.098Z,25.71
2016-12-20T16:20:05.138Z,25.8
2016-12-20T16:20:35.167Z,25.9
2016-12-20T16:21:05.210Z,25.62
2016-12-20T16:21:35.241Z,25.51
2016-12-20T16:22:05.283Z,25.8
2016-12-20T16:22:35.315Z,25.51
2016-12-20T16:23:05.348Z,25.6
2016-12-20T16:23:35.385Z,25.52
2016-12-20T16:24:05.419Z,25.51
2016-12-20T16:24:35.460Z,25.6
2016-12-20T16:25:05.492Z,25.6
2016-12-20T16:25:35.524Z,25.62
2016-12-20T16:26:05.569Z,25.52
2016-12-20T16:26:35.595Z,25.51
2016-12-20T16:27:05.632Z,25.8
2016-12-20T16:27:35.670Z,25.51
2016-12-20T16:28:05.710Z,25.9
2016-12-20T16:28:35.739Z,25.8
2016-12-20T16:29:05.773Z,26.18
2016-12-20T16:29:35.814Z,25.7
2016-12-20T16:30:05.849Z,25.81
2016-12-20T16:30:35.890Z,25.81
2016-12-20T16:31:05.917Z,25.9
2016-12-20T16:31:35.957Z,25.7
2016-12-20T16:32:05.993Z,25.8
2016-12-20T16:32:36.222Z,25.99
2016-12-20T16:33:06.067Z,26.18
2016-12-20T16:33:36.099Z,26.1
2016-12-20T16:34:06.131Z,26.09
2016-12-20T16:34:36.169Z,25.99
2016-12-20T16:35:06.198Z,25.99
2016-12-20T16:35:36.237Z,25.81
2016-12-20T16:36:06.292Z,25.8
2016-12-20T16:36:36.302Z,26.09
2016-12-20T16:37:06.350Z,25.99
2016-12-20T16:37:36.383Z,25.99
2016-12-20T16:38:06.423Z,26.09
2016-12-20T16:38:36.458Z,26.09
2016-12-20T16:39:06.488Z,25.9
2016-12-20T16:39:36.527Z,25.9
2016-12-20T16:40:06.559Z,26.18
2016-12-20T16:40:36.590Z,26.18
2016-12-20T16:41:06.631Z,25.99
2016-12-20T16:41:36.663Z,26.09
2016-12-20T16:42:06.702Z,25.99
2016-12-20T16:42:36.737Z,25.99
2016-12-20T16:43:06.783Z,25.9
2016-12-20T16:43:36.812Z,25.99
2016-12-20T16:44:06.846Z,26.09
2016-12-20T16:44:36.885Z,26.09
2016-12-20T16:45:06.915Z,25.9
2016-12-20T16:45:36.952Z,26.09
2016-12-20T16:46:06.988Z,26.18
2016-12-20T16:46:37.026Z,25.9
2016-12-20T16:47:07.067Z,26.09
2016-12-20T16:47:37.094Z,26.18
2016-12-20T16:48:07.129Z,26.09
2016-12-20T16:48:37.167Z,26.09
2016-12-20T16:49:07.199Z,25.99
2016-12-20T16:49:37.233Z,25.99
2016-12-20T16:50:07.275Z,25.99
2016-12-20T16:50:37.309Z,25.99
2016-12-20T16:51:07.342Z,26.09
2016-12-20T16:51:37.380Z,26.18
2016-12-20T16:52:07.423Z,25.99
2016-12-20T16:52:37.449Z,26.18
2016-12-20T16:53:07.514Z,26.18
2016-12-20T16:53:37.522Z,25.99
2016-12-20T16:54:07.557Z,26.37
2016-12-20T16:54:37.593Z,26.18
2016-12-20T16:55:07.629Z,26.09
2016-12-20T16:55:37.663Z,25.99
2016-12-20T16:56:07.698Z,25.99
2016-12-20T16:56:37.734Z,26.09
2016-12-20T16:57:07.768Z,26.28
2016-12-20T16:57:37.803Z,26.18
2016-12-20T16:58:07.840Z,26.09
2016-12-20T16:58:37.882Z,26.09
2016-12-20T16:59:07.911Z,26.28
2016-12-20T16:59:37.943Z,26.28
2016-12-20T17:00:07.984Z,26.09
2016-12-20T17:00:38.018Z,26.37
2016-12-20T17:01:08.054Z,26.28
2016-12-20T17:01:38.085Z,26.09
2016-12-20T17:02:08.129Z,26.09
2016-12-20T17:02:38.162Z,26.09
2016-12-20T17:03:08.249Z,26.37
2016-12-20T17:03:38.235Z,26.09
2016-12-20T17:04:08.264Z,26.18
2016-12-20T17:04:38.304Z,26.09
2016-12-20T17:05:08.339Z,26.09
2016-12-20T17:05:38.374Z,26.09
2016-12-20T17:06:08.403Z,26.18
2016-12-20T17:06:38.445Z,26.09
2016-12-20T17:07:08.611Z,26.28
2016-12-20T17:07:38.516Z,26.18
2016-12-20T17:08:08.551Z,26.28
2016-12-20T17:08:38.587Z,25.99
2016-12-20T17:09:08.626Z,26.18
2016-12-20T17:09:38.659Z,26.09
2016-12-20T17:10:08.693Z,26.09
2016-12-20T17:10:38.728Z,26.18
2016-12-20T17:11:08.766Z,26.18
2016-12-20T17:11:38.799Z,26.09
2016-12-20T17:12:08.834Z,25.99
2016-12-20T17:12:38.874Z,26.37
2016-12-20T17:13:08.911Z,26.18
2016-12-20T17:13:38.947Z,26.18
2016-12-20T17:14:08.981Z,26.28
2016-12-20T17:14:39.013Z,26.09
2016-12-20T17:15:09.170Z,26.18
2016-12-20T17:15:39.085Z,26.28
2016-12-20T17:16:09.120Z,26.28
2016-12-20T17:16:39.159Z,26.28
2016-12-20T17:17:09.187Z,26.28
2016-12-20T17:17:39.225Z,26.37
2016-12-20T17:18:09.264Z,26.37
2016-12-20T17:18:39.308Z,26.09
2016-12-20T17:19:09.341Z,26.37
2016-12-20T17:19:39.366Z,26.18
2016-12-20T17:20:09.403Z,26.37
2016-12-20T17:20:39.442Z,26.18
2016-12-20T17:21:09.475Z,26.28
2016-12-20T17:21:39.514Z,26.28
2016-12-20T17:22:09.549Z,26.28
2016-12-20T17:22:39.584Z,26.28
2016-12-20T17:23:09.619Z,26.18
2016-12-20T17:23:39.658Z,26.09
2016-12-20T17:24:09.693Z,26.47
2016-12-20T17:24:39.723Z,26.28
2016-12-20T17:25:09.763Z,26.37
2016-12-20T17:25:39.798Z,26.09
2016-12-20T17:26:09.833Z,26.28
2016-12-20T17:26:39.865Z,26.28
2016-12-20T17:27:09.914Z,26.28
2016-12-20T17:27:39.938Z,26.09
2016-12-20T17:28:09.973Z,26.28
2016-12-20T17:28:40.013Z,26.37
2016-12-20T17:29:10.043Z,26.37
2016-12-20T17:29:40.079Z,26.28
2016-12-20T17:30:10.131Z,26.28
2016-12-20T17:30:40.150Z,26.18
2016-12-20T17:31:10.189Z,26.37
2016-12-20T17:31:40.230Z,26.28
2016-12-20T17:32:10.261Z,26.37
2016-12-20T17:32:40.292Z,26.28
2016-12-20T17:33:10.331Z,26.18
2016-12-20T17:33:40.623Z,26.28
2016-12-20T17:34:10.397Z,26.37
2016-12-20T17:34:40.438Z,26.28
2016-12-20T17:35:10.472Z,26.47
2016-12-20T17:35:40.507Z,26.28
2016-12-20T17:36:10.546Z,26.37
2016-12-20T17:36:40.579Z,26.37
2016-12-20T17:37:10.616Z,26.28
2016-12-20T17:37:40.651Z,26.37
2016-12-20T17:38:10.685Z,26.47
2016-12-20T17:38:40.720Z,26.37
2016-12-20T17:39:10.757Z,26.47
2016-12-20T17:39:40.790Z,26.37
2016-12-20T17:40:10.828Z,26.18
2016-12-20T17:40:40.865Z,26.28
2016-12-20T17:41:10.902Z,26.37
2016-12-20T17:41:40.933Z,26.28
2016-12-20T17:42:10.967Z,26.37
2016-12-20T17:42:41.011Z,26.28
2016-12-20T17:43:11.045Z,26.28
2016-12-20T17:43:41.076Z,26.18
2016-12-20T17:44:11.111Z,26.28
2016-12-20T17:44:41.148Z,26.28
2016-12-20T17:45:11.297Z,26.37
2016-12-20T17:45:41.220Z,26.46
2016-12-20T17:46:11.262Z,26.47
2016-12-20T17:46:41.296Z,26.27
2016-12-20T17:47:11.324Z,26.28
2016-12-20T17:47:41.362Z,26.47
2016-12-20T17:48:11.401Z,26.28
2016-12-20T17:48:41.436Z,26.47
2016-12-20T17:49:11.464Z,26.47
2016-12-20T17:49:41.500Z,26.28
2016-12-20T17:50:11.538Z,26.37
2016-12-20T17:50:41.575Z,26.47
2016-12-20T17:51:11.612Z,26.18
2016-12-20T17:51:41.645Z,26.46
2016-12-20T17:52:11.681Z,26.47
2016-12-20T17:52:41.721Z,26.28
2016-12-20T17:53:11.753Z,26.27
2016-12-20T17:53:41.790Z,26.09
2016-12-20T17:54:11.824Z,26.18
2016-12-20T17:54:41.857Z,26.37
2016-12-20T17:55:11.893Z,26.28
2016-12-20T17:55:41.932Z,26.28
2016-12-20T17:56:11.964Z,26.18
2016-12-20T17:56:42.011Z,26.47
2016-12-20T17:57:12.037Z,26.47
2016-12-20T17:57:42.077Z,26.46
2016-12-20T17:58:12.103Z,26.36
2016-12-20T17:58:42.145Z,26.28
2016-12-20T17:59:12.178Z,26.37
2016-12-20T17:59:42.210Z,25.99
2016-12-20T18:00:12.252Z,26.47
2016-12-20T18:00:42.283Z,26.07
2016-12-20T18:01:12.320Z,26.37
2016-12-20T18:01:42.355Z,26.18
2016-12-20T18:02:12.398Z,26.47
2016-12-20T18:02:42.430Z,26.37
2016-12-20T18:03:12.462Z,26.46
2016-12-20T18:03:42.499Z,26.36
2016-12-20T18:04:12.537Z,26.37
2016-12-20T18:04:42.607Z,26.09
2016-12-20T18:05:12.604Z,26.46
2016-12-20T18:05:42.664Z,26.57
2016-12-20T18:06:12.676Z,26.36
2016-12-20T18:06:42.713Z,26.46
2016-12-20T18:07:12.749Z,26.37
2016-12-20T18:07:42.783Z,26.46
2016-12-20T18:08:12.822Z,26.47
2016-12-20T18:08:42.852Z,26.09
2016-12-20T18:09:12.888Z,26.37
2016-12-20T18:09:42.925Z,26.56
2016-12-20T18:10:12.962Z,26.07
2016-12-20T18:10:42.996Z,26.47
2016-12-20T18:11:13.030Z,26.09
2016-12-20T18:11:43.064Z,26.47
2016-12-20T18:12:13.102Z,26.47
2016-12-20T18:12:43.138Z,26.28
2016-12-20T18:13:13.176Z,26.47
2016-12-20T18:13:43.204Z,26.47
2016-12-20T18:14:13.239Z,26.56
2016-12-20T18:14:43.276Z,26.18